Time;durP1;ratioP1;P1;durP2;ratioP2;P2;SDS_P1;SDS_P2;PMS_P1;PMS_P2;Temp;Humidity;BMP_temperature;BMP_pressure;BME280_temperature;BME280_humidity;BME280_pressure;Samples;Min_cycle;Max_cycle;Signal;HPM_P1;HPM_P2
2021/01/22 00:01:18;;;;;;;60.55;28.73;;;;;;;0.85;100.00;95187.91;10529200;28;20820;-77
2021/01/22 00:06:19;;;;;;;85.70;37.85;;;;;;;0.83;100.00;95168.78;10536133;28;20016;-77
2021/01/22 00:11:19;;;;;;;72.85;33.45;;;;;;;0.90;100.00;95171.44;10535634;28;20016;-77
2021/01/22 00:16:19;;;;;;;63.35;29.23;;;;;;;0.64;100.00;95179.13;10518013;28;20020;-77
2021/01/22 00:21:20;;;;;;;56.57;31.00;;;;;;;0.70;100.00;95168.75;10535682;28;20145;-77
2021/01/22 00:26:20;;;;;;;50.07;24.07;;;;;;;0.64;100.00;95146.56;10535770;28;20377;-77
2021/01/22 00:31:21;;;;;;;41.47;24.20;;;;;;;0.86;100.00;95152.50;10502233;28;20262;-77
2021/01/22 00:36:21;;;;;;;49.13;25.60;;;;;;;0.96;100.00;95181.22;10493601;28;20017;-77
2021/01/22 00:41:21;;;;;;;37.65;19.98;;;;;;;1.04;100.00;95178.38;10475436;28;20020;-77
2021/01/22 00:46:22;;;;;;;36.80;20.50;;;;;;;1.08;100.00;95158.41;10491978;28;20415;-77
2021/01/22 00:51:22;;;;;;;56.17;23.10;;;;;;;1.17;100.00;95170.44;10474852;28;20361;-77
2021/01/22 00:56:23;;;;;;;50.13;23.10;;;;;;;1.13;100.00;95158.63;10492698;28;20274;-78
2021/01/22 01:01:23;;;;;;;46.55;24.25;;;;;;;1.17;100.00;95157.22;10492446;28;20377;-77
2021/01/22 01:06:23;;;;;;;38.10;20.47;;;;;;;0.81;100.00;95163.69;10474445;28;20399;-77
2021/01/22 01:11:24;;;;;;;39.75;19.70;;;;;;;0.88;100.00;95126.66;10491866;28;20285;-77
2021/01/22 01:16:25;;;;;;;32.70;18.38;;;;;;;1.13;100.00;95149.84;10472986;28;20020;-77
2021/01/22 01:21:26;;;;;;;35.28;18.05;;;;;;;1.19;100.00;95117.28;10491308;28;20063;-77
2021/01/22 01:26:26;;;;;;;30.02;16.63;;;;;;;1.25;100.00;95128.91;10491288;28;20039;-77
2021/01/22 01:31:27;;;;;;;45.03;19.07;;;;;;;1.40;100.00;95124.19;10525125;28;20024;-77
2021/01/22 01:36:27;;;;;;;32.63;17.60;;;;;;;1.08;100.00;95147.03;10532422;28;20307;-77
2021/01/22 01:41:28;;;;;;;38.83;16.00;;;;;;;1.22;100.00;95124.03;10532308;28;20031;-77
2021/01/22 01:46:28;;;;;;;33.25;15.75;;;;;;;1.30;100.00;95107.94;10532381;28;20768;-77
2021/01/22 01:51:29;;;;;;;27.83;14.53;;;;;;;1.18;100.00;95105.88;10513612;28;20062;-77
2021/01/22 01:56:30;;;;;;;28.85;13.95;;;;;;;1.21;100.00;95096.72;10532068;28;20032;-77
2021/01/22 02:01:34;;;;;;;26.98;13.48;;;;;;;1.15;100.00;95103.63;10531769;28;20839;-76
2021/01/22 02:06:34;;;;;;;28.77;14.38;;;;;;;1.21;100.00;95096.72;10513243;28;20136;-77
2021/01/22 02:11:35;;;;;;;24.27;13.10;;;;;;;1.12;100.00;95106.69;10531281;28;20555;-78
2021/01/22 02:16:36;;;;;;;26.13;12.38;;;;;;;1.12;100.00;95095.31;10507832;28;20274;-78
2021/01/22 02:21:38;;;;;;;27.25;12.68;;;;;;;1.20;100.00;95079.22;10470848;28;20043;-78
2021/01/22 02:26:47;;;;;;;26.48;13.23;;;;;;;1.16;100.00;95086.75;10489204;28;20099;-77
2021/01/22 02:31:51;;;;;;;29.15;13.45;;;;;;;1.22;100.00;95092.25;10526066;28;20115;-77
2021/01/22 02:36:57;;;;;;;26.60;14.02;;;;;;;1.06;100.00;95083.72;10531063;28;20055;-77
2021/01/22 02:41:58;;;;;;;25.52;14.10;;;;;;;0.96;100.00;95078.84;10530761;28;20070;-77
2021/01/22 02:47:00;;;;;;;31.95;14.70;;;;;;;0.72;100.00;95080.25;10512483;28;20475;-77
2021/01/22 02:52:00;;;;;;;27.58;15.10;;;;;;;0.58;100.00;95073.31;10530465;28;20024;-77
2021/01/22 02:57:13;;;;;;;26.90;14.10;;;;;;;0.65;100.00;95090.00;10530563;28;20024;-77
2021/01/22 03:02:16;;;;;;;29.25;13.73;;;;;;;0.58;100.00;95076.78;10517847;28;20075;-77
2021/01/22 03:07:33;;;;;;;32.20;14.77;;;;;;;0.68;100.00;95089.59;10487997;28;20024;-77
2021/01/22 03:12:33;;;;;;;31.27;16.25;;;;;;;0.34;100.00;95083.47;10470102;28;20021;-77
2021/01/22 03:17:35;;;;;;;31.05;14.88;;;;;;;0.39;100.00;95081.03;10487401;28;20021;-77
2021/01/22 03:22:35;;;;;;;33.40;16.23;;;;;;;0.49;100.00;95080.66;10460109;28;20064;-77
2021/01/22 03:27:35;;;;;;;33.87;15.43;;;;;;;0.35;100.00;95079.81;10448292;28;20024;-77
2021/01/22 03:32:36;;;;;;;30.73;15.68;;;;;;;0.41;100.00;95081.63;10487388;28;20572;-73
2021/01/22 03:37:36;;;;;;;31.03;13.93;;;;;;;0.20;100.00;95095.03;10454007;28;20033;-77
2021/01/22 03:42:37;;;;;;;31.90;16.10;;;;;;;0.22;100.00;95082.41;10454723;28;20032;-77
2021/01/22 03:47:37;;;;;;;33.17;15.73;;;;;;;0.23;100.00;95090.13;10454359;28;20271;-77
2021/01/22 03:52:39;;;;;;;35.90;16.88;;;;;;;0.39;100.00;95082.84;10477082;28;20291;-77
2021/01/22 03:57:39;;;;;;;31.70;14.65;;;;;;;0.28;100.00;95090.34;10495557;28;20094;-77
2021/01/22 04:02:39;;;;;;;37.80;15.80;;;;;;;0.30;100.00;95106.81;10495225;28;20071;-76
2021/01/22 04:07:40;;;;;;;32.03;15.80;;;;;;;0.35;100.00;95103.59;10493288;28;20717;-76
2021/01/22 04:12:40;;;;;;;35.30;16.95;;;;;;;0.38;100.00;95082.03;10493649;28;20271;-76
2021/01/22 04:17:41;;;;;;;30.63;15.27;;;;;;;0.44;100.00;95102.38;10493260;28;20115;-76
2021/01/22 04:22:41;;;;;;;40.33;19.73;;;;;;;0.53;100.00;95110.13;10521441;28;20047;-77
2021/01/22 04:27:42;;;;;;;32.13;16.07;;;;;;;0.40;100.00;95108.28;10517181;28;20286;-76
2021/01/22 04:32:42;;;;;;;29.23;14.70;;;;;;;0.40;100.00;95098.50;10536008;28;21084;-76
2021/01/22 04:37:42;;;;;;;28.80;15.00;;;;;;;0.48;100.00;95090.38;10535582;28;20036;-76
2021/01/22 04:42:44;;;;;;;38.97;18.10;;;;;;;0.50;100.00;95091.00;10518021;28;20837;-77
2021/01/22 04:47:44;;;;;;;33.67;16.02;;;;;;;0.46;100.00;95091.59;10535712;28;20030;-76
2021/01/22 04:52:46;;;;;;;35.83;17.37;;;;;;;0.63;100.00;95071.69;10534087;28;20032;-76
2021/01/22 04:57:46;;;;;;;34.33;15.75;;;;;;;0.47;100.00;95069.44;10535013;28;20282;-76
2021/01/22 05:02:52;;;;;;;33.20;16.30;;;;;;;0.66;100.00;95076.56;10516417;28;20057;-76
2021/01/22 05:07:52;;;;;;;31.67;16.13;;;;;;;0.43;100.00;95082.25;10534472;28;20388;-78
2021/01/22 05:12:53;;;;;;;34.25;16.92;;;;;;;0.54;100.00;95077.38;10509962;28;20028;-76
2021/01/22 05:17:54;;;;;;;30.43;15.70;;;;;;;0.74;100.00;95069.44;10491882;28;20497;-74
2021/01/22 05:22:56;;;;;;;35.90;18.58;;;;;;;0.64;100.00;95069.84;10509090;28;20135;-73
2021/01/22 05:27:57;;;;;;;35.38;17.92;;;;;;;0.61;100.00;95068.41;10522167;28;20040;-73
2021/01/22 05:33:15;;;;;;;35.67;19.10;;;;;;;0.42;100.00;95082.44;10514146;28;20491;-73
2021/01/22 05:38:15;;;;;;;35.95;17.10;;;;;;;0.63;100.00;95065.59;10514092;28;20551;-73
2021/01/22 05:43:17;;;;;;;36.75;17.95;;;;;;;0.31;100.00;95057.44;10532730;28;20042;-73
2021/01/22 05:48:18;;;;;;;34.72;19.25;;;;;;;0.57;100.00;95045.25;10504214;28;20090;-73
2021/01/22 05:53:20;;;;;;;28.42;16.10;;;;;;;0.79;100.00;95057.25;10489544;28;20506;-74
2021/01/22 05:58:29;;;;;;;21.05;11.68;;;;;;;0.99;100.00;95044.00;10489530;28;20032;-74
2021/01/22 06:03:30;;;;;;;28.67;14.20;;;;;;;1.16;100.00;95054.97;10473179;28;20028;-74
2021/01/22 06:08:30;;;;;;;29.38;16.42;;;;;;;1.32;100.00;95058.22;10531615;28;20451;-74
2021/01/22 06:13:32;;;;;;;27.40;13.43;;;;;;;1.36;100.00;95056.78;10529295;28;20879;-76
2021/01/22 06:18:34;;;;;;;37.22;20.08;;;;;;;1.56;100.00;95062.00;10511854;28;20016;-75
2021/01/22 06:23:35;;;;;;;25.17;15.70;;;;;;;1.57;100.00;95053.03;10506381;28;20107;-75
2021/01/22 06:28:37;;;;;;;32.25;16.10;;;;;;;1.74;100.00;95053.38;10498120;28;20035;-75
2021/01/22 06:33:38;;;;;;;25.60;14.68;;;;;;;1.99;100.00;95055.34;10530350;28;20032;-76
2021/01/22 06:38:41;;;;;;;28.38;15.75;;;;;;;2.16;100.00;95058.31;10530427;28;20051;-77
2021/01/22 06:43:42;;;;;;;35.83;16.63;;;;;;;2.14;100.00;95055.06;10511797;28;20119;-77
2021/01/22 06:48:54;;;;;;;32.00;18.42;;;;;;;2.46;100.00;95042.63;10529756;28;20016;-76
2021/01/22 06:54:11;;;;;;;45.60;21.05;;;;;;;2.70;100.00;95048.97;10502728;28;20021;-76
2021/01/22 06:59:20;;;;;;;34.83;19.58;;;;;;;3.05;100.00;95055.63;10488532;28;20044;-77
2021/01/22 07:04:32;;;;;;;34.05;18.48;;;;;;;3.22;100.00;95016.06;10487684;28;20496;-77
2021/01/22 07:09:46;;;;;;;27.77;14.50;;;;;;;3.45;100.00;95038.50;10488401;28;20523;-77
2021/01/22 07:14:48;;;;;;;30.70;15.45;;;;;;;3.67;100.00;95021.09;10497135;28;20259;-76
2021/01/22 07:19:52;;;;;;;37.35;18.98;;;;;;;3.73;100.00;95030.81;10505226;28;20071;-76
2021/01/22 07:24:55;;;;;;;38.85;19.58;;;;;;;3.69;100.00;95034.97;10512237;28;20028;-75
2021/01/22 07:30:16;;;;;;;52.60;28.23;;;;;;;3.54;100.00;95030.00;10495403;28;20082;-76
2021/01/22 07:35:20;;;;;;;62.55;30.35;;;;;;;3.33;100.00;95039.22;10530737;28;20491;-75
2021/01/22 07:40:21;;;;;;;95.88;45.80;;;;;;;3.06;100.00;95033.38;10537554;28;20449;-76
2021/01/22 07:45:21;;;;;;;82.38;37.25;;;;;;;3.08;100.00;95026.00;10519606;28;20054;-76
2021/01/22 07:50:21;;;;;;;81.83;38.77;;;;;;;2.85;100.00;95045.19;10536550;28;20090;-75
2021/01/22 07:55:23;;;;;;;71.45;34.33;;;;;;;2.82;100.00;95025.22;10537162;28;20115;-77
2021/01/22 08:00:24;;;;;;;67.47;30.73;;;;;;;2.96;100.00;95022.41;10536409;28;20457;-75
2021/01/22 08:05:32;;;;;;;59.90;31.08;;;;;;;3.03;100.00;95017.88;10536830;28;20020;-75
2021/01/22 08:10:32;;;;;;;74.17;34.40;;;;;;;3.06;100.00;95015.59;10536103;28;20024;-75
2021/01/22 08:15:32;;;;;;;64.72;32.63;;;;;;;3.25;100.00;95024.41;10536306;28;20050;-76
2021/01/22 08:20:36;;;;;;;54.20;28.67;;;;;;;3.38;100.00;95028.75;10535696;28;20102;-77
2021/01/22 08:25:38;;;;;;;57.58;25.92;;;;;;;3.52;100.00;95024.13;10525548;28;20286;-78
2021/01/22 08:30:40;;;;;;;56.75;29.88;;;;;;;3.49;100.00;95024.56;10507347;28;20495;-77
2021/01/22 08:35:40;;;;;;;46.70;22.92;;;;;;;3.77;100.00;95017.91;10503643;28;20032;-78
2021/01/22 08:40:45;;;;;;;52.00;24.20;;;;;;;3.90;100.00;95007.09;10496109;28;20024;-80
2021/01/22 08:46:07;;;;;;;39.33;19.30;;;;;;;4.03;100.00;95021.25;10493649;28;20745;-80
2021/01/22 08:51:07;;;;;;;40.42;19.45;;;;;;;4.14;100.00;94999.22;10496498;28;20024;-79
2021/01/22 08:56:15;;;;;;;39.72;20.75;;;;;;;4.15;100.00;94994.72;10486973;28;20419;-75
2021/01/22 09:01:16;;;;;;;43.05;22.27;;;;;;;4.15;100.00;94979.56;10508620;28;20763;-76
2021/01/22 09:06:16;;;;;;;45.07;22.03;;;;;;;4.12;100.00;94988.00;10534537;28;20038;-75
2021/01/22 09:11:35;;;;;;;41.07;22.40;;;;;;;4.28;100.00;94968.75;10533805;28;20274;-75
2021/01/22 09:16:46;;;;;;;44.75;23.02;;;;;;;4.28;100.00;94966.06;10533720;28;20028;-75
2021/01/22 09:21:53;;;;;;;35.10;17.60;;;;;;;4.74;100.00;94982.31;10533575;28;20040;-76
2021/01/22 09:26:53;;;;;;;43.85;20.70;;;;;;;5.18;100.00;94960.69;10533620;28;20027;-76
2021/01/22 09:31:54;;;;;;;44.23;22.63;;;;;;;4.96;100.00;94947.94;10532835;28;20020;-75
2021/01/22 09:36:54;;;;;;;50.78;26.08;;;;;;;5.27;100.00;94945.97;10531390;28;20398;-75
2021/01/22 09:41:55;;;;;;;37.57;19.73;;;;;;;5.29;100.00;94937.75;10532526;28;20047;-75
2021/01/22 09:46:55;;;;;;;41.85;23.33;;;;;;;5.38;100.00;94923.00;10532571;28;20058;-75
2021/01/22 09:51:56;;;;;;;38.07;19.97;;;;;;;5.32;100.00;94929.28;10532371;28;20024;-76
2021/01/22 09:56:56;;;;;;;34.67;16.93;;;;;;;5.50;100.00;94917.66;10531607;28;20312;-75
2021/01/22 10:01:56;;;;;;;35.83;15.83;;;;;;;5.81;100.00;94883.56;10513711;28;20281;-75
2021/01/22 10:06:57;;;;;;;29.42;13.95;;;;;;;5.85;100.00;94882.03;10531802;28;20277;-75
2021/01/22 10:11:58;;;;;;;23.13;12.77;;;;;;;6.12;100.00;94879.56;10513068;28;20514;-74
2021/01/22 10:16:58;;;;;;;24.90;13.57;;;;;;;6.32;100.00;94876.44;10531305;28;20698;-75
2021/01/22 10:21:58;;;;;;;29.35;14.77;;;;;;;6.51;100.00;94870.84;10531784;28;20072;-75
2021/01/22 10:26:59;;;;;;;28.23;13.10;;;;;;;6.76;100.00;94870.41;10530872;28;20032;-75
2021/01/22 10:31:59;;;;;;;32.55;13.70;;;;;;;6.77;100.00;94879.25;10530956;28;20024;-75
2021/01/22 10:37:00;;;;;;;36.03;17.63;;;;;;;6.86;100.00;94872.44;10514030;28;20111;-75
2021/01/22 10:42:00;;;;;;;39.50;18.43;;;;;;;6.86;100.00;94869.75;10488115;28;20028;-75
2021/01/22 10:47:02;;;;;;;42.33;18.80;;;;;;;7.09;100.00;94852.69;10488640;28;20278;-75
2021/01/22 10:52:03;;;;;;;37.42;18.48;;;;;;;6.92;100.00;94844.75;10488548;28;20087;-75
2021/01/22 10:57:04;;;;;;;52.92;21.92;;;;;;;7.03;100.00;94847.53;10488073;28;20107;-75
2021/01/22 11:02:11;;;;;;;54.20;25.25;;;;;;;7.26;100.00;94814.41;10488432;28;20356;-75
2021/01/22 11:07:11;;;;;;;71.03;32.83;;;;;;;7.48;100.00;94793.78;10488020;28;20051;-75
2021/01/22 11:12:14;;;;;;;78.05;33.53;;;;;;;7.63;100.00;94787.81;10470312;28;20107;-75
2021/01/22 11:17:14;;;;;;;82.05;35.47;;;;;;;7.59;100.00;94778.66;10491052;28;20029;-75
2021/01/22 11:22:15;;;;;;;104.07;45.33;;;;;;;7.61;100.00;94770.38;10487970;28;20094;-76
2021/01/22 11:27:16;;;;;;;99.63;43.22;;;;;;;7.36;100.00;94761.03;10503466;28;20766;-74
2021/01/22 11:32:17;;;;;;;81.03;37.58;;;;;;;7.50;100.00;94767.59;10487886;28;20020;-74
2021/01/22 11:37:17;;;;;;;64.13;27.85;;;;;;;7.48;100.00;94772.41;10491677;28;20463;-74
2021/01/22 11:42:18;;;;;;;60.07;28.70;;;;;;;7.63;100.00;94747.69;10512840;28;20028;-76
2021/01/22 11:47:18;;;;;;;75.13;31.58;;;;;;;7.95;100.00;94738.81;10510888;28;20278;-76
2021/01/22 11:52:18;;;;;;;43.40;21.60;;;;;;;8.27;98.28;94719.22;10489676;28;20027;-76
2021/01/22 11:57:19;;;;;;;59.90;27.50;;;;;;;9.21;95.92;94699.81;10528933;28;20162;-75
2021/01/22 12:02:19;;;;;;;75.50;32.73;;;;;;;9.75;84.65;94726.19;10536543;28;20115;-75
2021/01/22 12:07:20;;;;;;;82.03;38.50;;;;;;;9.87;86.48;94709.78;10498817;28;20035;-76
2021/01/22 12:12:20;;;;;;;86.50;40.10;;;;;;;9.73;82.95;94701.47;10517576;28;20108;-75
2021/01/22 12:17:21;;;;;;;63.70;31.20;;;;;;;9.41;85.57;94713.25;10535443;28;20028;-76
2021/01/22 12:22:21;;;;;;;85.30;38.13;;;;;;;9.13;87.32;94673.53;10516918;28;20131;-75
2021/01/22 12:27:21;;;;;;;71.57;31.37;;;;;;;8.76;91.07;94694.03;10534860;28;20115;-75
2021/01/22 12:32:22;;;;;;;69.87;28.80;;;;;;;8.66;96.06;94685.97;10535428;28;20024;-75
2021/01/22 12:37:22;;;;;;;65.70;28.77;;;;;;;8.71;92.49;94689.47;10534862;28;20277;-75
2021/01/22 12:42:23;;;;;;;62.85;31.70;;;;;;;8.68;92.56;94663.22;10535099;28;20028;-75
2021/01/22 12:47:23;;;;;;;60.67;32.83;;;;;;;8.74;94.41;94666.72;10534430;28;20024;-75
2021/01/22 12:52:23;;;;;;;83.07;36.57;;;;;;;8.64;94.53;94685.44;10534732;28;20048;-75
2021/01/22 12:57:24;;;;;;;78.30;33.00;;;;;;;8.58;96.03;94671.19;10516292;28;20032;-75
2021/01/22 13:02:25;;;;;;;81.28;36.17;;;;;;;8.75;95.79;94656.78;10519738;28;20110;-75
2021/01/22 13:07:26;;;;;;;59.00;27.83;;;;;;;8.43;94.36;94665.75;10503237;28;20344;-76
2021/01/22 13:12:27;;;;;;;79.18;30.25;;;;;;;8.43;94.76;94652.34;10490749;28;20021;-75
2021/01/22 13:17:27;;;;;;;84.53;34.53;;;;;;;8.47;96.16;94646.25;10506866;28;20399;-75
2021/01/22 13:22:28;;;;;;;64.55;30.17;;;;;;;8.37;95.01;94659.56;10491278;28;20299;-75
2021/01/22 13:27:28;;;;;;;69.38;28.50;;;;;;;8.36;100.00;94657.97;10491203;28;20024;-76
2021/01/22 13:32:31;;;;;;;78.27;30.80;;;;;;;8.32;98.41;94668.38;10491343;28;20028;-76
2021/01/22 13:37:32;;;;;;;71.03;32.03;;;;;;;8.37;100.00;94663.06;10491163;28;20274;-76
2021/01/22 13:42:33;;;;;;;71.20;31.80;;;;;;;8.52;96.82;94662.34;10472937;28;20411;-76
2021/01/22 13:47:33;;;;;;;67.85;31.73;;;;;;;8.51;98.58;94638.50;10490415;28;20032;-77
2021/01/22 13:52:34;;;;;;;67.80;31.33;;;;;;;8.57;99.01;94636.63;10490204;28;20024;-77
2021/01/22 13:57:34;;;;;;;81.57;33.47;;;;;;;8.53;100.00;94637.16;10490394;28;20274;-77
2021/01/22 14:02:34;;;;;;;82.47;33.00;;;;;;;8.43;100.00;94638.97;10489194;28;20292;-77
2021/01/22 14:07:35;;;;;;;77.87;31.87;;;;;;;8.35;100.00;94642.97;10489515;28;20059;-77
2021/01/22 14:12:35;;;;;;;78.77;31.00;;;;;;;8.24;100.00;94628.72;10505843;28;20020;-77
2021/01/22 14:17:36;;;;;;;74.22;32.28;;;;;;;8.14;100.00;94628.69;10488646;28;20033;-77
2021/01/22 14:22:36;;;;;;;54.08;25.67;;;;;;;8.24;100.00;94636.75;10469690;28;20045;-77
2021/01/22 14:27:37;;;;;;;62.50;28.17;;;;;;;8.36;100.00;94621.28;10499956;28;20039;-77
2021/01/22 14:32:39;;;;;;;66.07;27.47;;;;;;;8.42;100.00;94616.75;10501194;28;20025;-77
2021/01/22 14:37:39;;;;;;;66.38;31.25;;;;;;;8.39;100.00;94615.38;10473488;28;20277;-76
2021/01/22 14:42:41;;;;;;;70.40;29.65;;;;;;;8.48;100.00;94606.88;10529597;28;20028;-77
2021/01/22 14:47:41;;;;;;;55.50;28.20;;;;;;;8.26;100.00;94621.25;10505132;28;20036;-77
2021/01/22 14:52:41;;;;;;;56.97;28.48;;;;;;;8.37;100.00;94608.69;10488392;28;20500;-77
2021/01/22 14:57:42;;;;;;;58.85;27.42;;;;;;;8.37;100.00;94606.84;10488315;28;20028;-77
2021/01/22 15:02:42;;;;;;;51.92;24.88;;;;;;;8.13;100.00;94624.38;10490067;28;20021;-77
2021/01/22 15:07:43;;;;;;;58.80;25.67;;;;;;;8.06;100.00;94611.22;10520301;28;20031;-76
2021/01/22 15:12:43;;;;;;;59.85;26.42;;;;;;;8.09;100.00;94623.28;10529488;28;20032;-77
2021/01/22 15:17:44;;;;;;;62.80;25.73;;;;;;;8.15;100.00;94625.75;10517635;28;20028;-77
2021/01/22 15:22:44;;;;;;;54.55;22.80;;;;;;;8.17;100.00;94631.63;10487036;28;20044;-77
2021/01/22 15:27:45;;;;;;;72.10;26.30;;;;;;;8.03;100.00;94627.81;10470124;28;20028;-77
2021/01/22 15:32:48;;;;;;;51.50;22.85;;;;;;;7.94;100.00;94615.97;10490285;28;20270;-76
2021/01/22 15:37:48;;;;;;;53.75;24.15;;;;;;;8.01;100.00;94624.59;10503301;28;20036;-76
2021/01/22 15:42:48;;;;;;;44.08;21.75;;;;;;;7.81;100.00;94630.63;10494867;28;20483;-75
2021/01/22 15:47:49;;;;;;;56.63;25.23;;;;;;;7.75;100.00;94620.97;10477398;28;20032;-76
2021/01/22 15:52:49;;;;;;;58.03;25.48;;;;;;;7.82;100.00;94619.66;10475482;28;20255;-75
2021/01/22 15:57:50;;;;;;;54.13;25.87;;;;;;;7.88;100.00;94628.53;10494699;28;20024;-75
2021/01/22 16:02:50;;;;;;;63.97;27.70;;;;;;;7.93;100.00;94633.13;10489498;28;20119;-75
2021/01/22 16:07:51;;;;;;;65.23;32.00;;;;;;;7.97;100.00;94623.50;10536336;28;20281;-76
2021/01/22 16:12:51;;;;;;;86.88;31.92;;;;;;;7.94;100.00;94627.50;10518231;28;20350;-76
2021/01/22 16:17:52;;;;;;;64.67;31.97;;;;;;;7.86;100.00;94622.63;10501776;28;20021;-76
2021/01/22 16:22:52;;;;;;;54.03;24.37;;;;;;;7.73;100.00;94621.22;10493691;28;20833;-76
2021/01/22 16:27:53;;;;;;;51.57;22.07;;;;;;;7.81;100.00;94618.03;10494097;28;20286;-76
2021/01/22 16:32:54;;;;;;;40.30;16.85;;;;;;;7.89;100.00;94619.44;10528753;28;20282;-74
2021/01/22 16:37:54;;;;;;;45.92;19.08;;;;;;;7.93;100.00;94627.78;10516023;28;20865;-73
2021/01/22 16:42:55;;;;;;;45.83;19.77;;;;;;;7.96;100.00;94630.72;10506679;28;20031;-74
2021/01/22 16:47:56;;;;;;;44.60;21.75;;;;;;;7.95;100.00;94626.41;10532762;28;20024;-74
2021/01/22 16:52:56;;;;;;;53.28;26.70;;;;;;;7.86;100.00;94638.69;10531269;28;20043;-73
2021/01/22 16:57:56;;;;;;;55.73;25.10;;;;;;;7.74;100.00;94651.44;10563083;28;20170;-75
2021/01/22 17:02:57;;;;;;;50.90;24.55;;;;;;;7.75;100.00;94635.13;10541532;28;20762;-73
2021/01/22 17:07:57;;;;;;;71.17;27.93;;;;;;;7.53;100.00;94643.28;10527376;28;20023;-75
2021/01/22 17:12:58;;;;;;;63.80;28.63;;;;;;;7.49;100.00;94612.75;10527709;28;20020;-75
2021/01/22 17:17:58;;;;;;;48.43;24.30;;;;;;;7.41;100.00;94634.63;10509192;28;20031;-73
2021/01/22 17:22:58;;;;;;;48.60;22.67;;;;;;;7.52;100.00;94634.44;10524621;28;20295;-73
2021/01/22 17:27:59;;;;;;;58.77;22.70;;;;;;;7.57;100.00;94635.56;10527907;28;20728;-74
2021/01/22 17:32:59;;;;;;;58.57;27.23;;;;;;;7.60;100.00;94614.44;10523051;28;20028;-74
2021/01/22 17:38:00;;;;;;;61.83;29.90;;;;;;;7.46;100.00;94640.81;10526883;28;20490;-73
2021/01/22 17:43:00;;;;;;;163.52;61.67;;;;;;;7.25;100.00;94609.63;10508626;28;20832;-74
2021/01/22 17:48:00;;;;;;;32.10;14.27;;;;;;;7.47;100.00;94614.88;10525012;28;20016;-74
2021/01/22 17:53:01;;;;;;;51.47;23.08;;;;;;;7.59;100.00;94591.44;10526753;28;20645;-74
2021/01/22 17:58:01;;;;;;;281.95;100.65;;;;;;;7.64;100.00;94602.16;10519275;28;20391;-74
2021/01/22 18:03:02;;;;;;;45.23;18.17;;;;;;;7.46;100.00;94615.94;10525608;28;20537;-74
2021/01/22 18:08:03;;;;;;;32.83;14.20;;;;;;;7.36;100.00;94608.66;10527660;28;20326;-74
2021/01/22 18:13:05;;;;;;;31.80;13.07;;;;;;;7.29;100.00;94611.53;10528359;28;20027;-74
2021/01/22 18:18:05;;;;;;;23.42;13.10;;;;;;;7.06;100.00;94595.84;10524056;28;20040;-76
2021/01/22 18:23:06;;;;;;;27.17;11.55;;;;;;;7.01;100.00;94599.28;10506092;28;20063;-73
2021/01/22 18:28:06;;;;;;;24.40;11.93;;;;;;;6.90;100.00;94577.00;10524143;28;20621;-73
2021/01/22 18:33:07;;;;;;;21.75;10.18;;;;;;;6.82;100.00;94594.31;10505931;28;20084;-74
2021/01/22 18:38:07;;;;;;;25.75;10.63;;;;;;;6.82;100.00;94594.31;10508312;28;20033;-74
2021/01/22 18:43:08;;;;;;;26.65;10.02;;;;;;;6.94;100.00;94607.50;10523143;28;20032;-73
2021/01/22 18:48:08;;;;;;;21.13;10.23;;;;;;;6.93;100.00;94584.50;10521784;28;20096;-73
2021/01/22 18:53:09;;;;;;;19.23;10.43;;;;;;;6.90;100.00;94617.06;10522177;28;20285;-73
2021/01/22 18:58:09;;;;;;;26.53;10.87;;;;;;;6.77;100.00;94620.97;10522915;28;20020;-73
2021/01/22 19:03:09;;;;;;;19.73;10.20;;;;;;;6.74;100.00;94561.91;10521315;28;20376;-73
2021/01/22 19:08:10;;;;;;;23.90;10.10;;;;;;;6.86;100.00;94588.47;10518458;28;20020;-73
2021/01/22 19:13:10;;;;;;;16.15;9.50;;;;;;;6.78;100.00;94565.66;10520220;28;20081;-73
2021/01/22 19:18:11;;;;;;;19.30;9.10;;;;;;;6.91;100.00;94556.47;10524997;28;20028;-73
2021/01/22 19:23:11;;;;;;;16.85;7.88;;;;;;;7.01;100.00;94548.50;10491880;28;904130;-73
2021/01/22 19:28:15;;;;;;;22.52;8.73;;;;;;;7.03;100.00;94542.91;10525599;28;20526;-73
2021/01/22 19:33:15;;;;;;;15.82;8.23;;;;;;;6.94;100.00;94543.38;10506699;28;20077;-73
2021/01/22 19:38:16;;;;;;;16.55;8.60;;;;;;;6.89;100.00;94543.31;10524785;28;20024;-73
2021/01/22 19:43:17;;;;;;;16.00;8.40;;;;;;;6.88;100.00;94539.06;10525003;28;20115;-73
2021/01/22 19:48:17;;;;;;;15.75;8.60;;;;;;;6.79;100.00;94546.72;10526964;28;20572;-76
2021/01/22 19:53:18;;;;;;;14.23;8.50;;;;;;;6.62;100.00;94538.81;10487835;28;20119;-75
2021/01/22 19:58:18;;;;;;;17.92;8.88;;;;;;;6.69;100.00;94532.50;10485879;28;20059;-75
2021/01/22 20:03:18;;;;;;;19.77;10.00;;;;;;;6.62;100.00;94530.81;10468570;28;20021;-76
2021/01/22 20:08:19;;;;;;;18.37;10.40;;;;;;;6.65;100.00;94540.19;10490754;28;20038;-76
2021/01/22 20:13:20;;;;;;;15.85;7.80;;;;;;;6.56;100.00;94542.50;10505851;28;20293;-80
2021/01/22 20:18:20;;;;;;;19.98;8.38;;;;;;;6.51;100.00;94545.13;10495136;28;20460;-76
2021/01/22 20:23:20;;;;;;;16.63;8.70;;;;;;;6.46;100.00;94529.88;10475168;28;20537;-79
2021/01/22 20:28:21;;;;;;;15.63;8.20;;;;;;;6.48;100.00;94535.75;10494906;28;20305;-77
2021/01/22 20:33:22;;;;;;;20.30;9.23;;;;;;;6.42;100.00;94535.94;10492697;28;20285;-77
2021/01/22 20:38:23;;;;;;;16.17;9.50;;;;;;;6.15;100.00;94544.75;10492558;28;21170;-76
2021/01/22 20:43:24;;;;;;;17.77;9.60;;;;;;;6.24;100.00;94543.25;10499873;28;20055;-77
2021/01/22 20:48:25;;;;;;;17.33;8.80;;;;;;;6.32;100.00;94548.16;10492515;28;20063;-76
2021/01/22 20:53:25;;;;;;;14.70;7.80;;;;;;;6.39;100.00;94549.81;10505742;28;20134;-77
2021/01/22 20:58:26;;;;;;;15.68;9.40;;;;;;;6.50;100.00;94555.00;10526658;28;20475;-76
2021/01/22 21:03:26;;;;;;;12.10;7.47;;;;;;;6.18;100.00;94525.56;10515706;28;20388;-76
2021/01/22 21:08:27;;;;;;;15.10;7.47;;;;;;;6.22;100.00;94518.66;10530731;28;20341;-77
2021/01/22 21:13:27;;;;;;;15.50;7.03;;;;;;;6.34;100.00;94534.56;10491198;28;20581;-76
2021/01/22 21:18:28;;;;;;;11.70;6.70;;;;;;;6.40;100.00;94516.72;10518814;28;20036;-76
2021/01/22 21:23:30;;;;;;;14.27;6.00;;;;;;;6.55;100.00;94505.41;10516539;28;20294;-77
2021/01/22 21:28:30;;;;;;;9.85;5.45;;;;;;;6.53;100.00;94511.00;10472752;28;20021;-76
2021/01/22 21:33:34;;;;;;;13.47;7.10;;;;;;;6.67;100.00;94522.06;10490078;28;20479;-76
2021/01/22 21:38:34;;;;;;;12.50;6.10;;;;;;;6.67;100.00;94530.06;10509128;28;20131;-76
2021/01/22 21:43:34;;;;;;;16.73;7.20;;;;;;;6.65;100.00;94532.19;10531075;28;20024;-76
2021/01/22 21:48:35;;;;;;;17.88;7.97;;;;;;;6.71;100.00;94528.47;10531520;28;20046;-76
2021/01/22 21:53:35;;;;;;;17.38;7.22;;;;;;;6.75;100.00;94534.94;10531431;28;20020;-76
2021/01/22 21:58:36;;;;;;;17.97;7.90;;;;;;;6.68;100.00;94526.31;10530549;28;20051;-75
2021/01/22 22:03:36;;;;;;;21.13;7.87;;;;;;;6.59;100.00;94550.00;10529971;28;20807;-75
2021/01/22 22:08:36;;;;;;;19.13;8.80;;;;;;;6.54;100.00;94541.16;10529704;28;20278;-76
2021/01/22 22:13:37;;;;;;;16.58;9.82;;;;;;;6.52;100.00;94529.91;10530249;28;20281;-76
2021/01/22 22:18:37;;;;;;;17.90;9.50;;;;;;;6.38;100.00;94502.81;10530016;28;20098;-75
2021/01/22 22:23:38;;;;;;;16.35;8.10;;;;;;;6.29;100.00;94535.31;10529720;28;20381;-76
2021/01/22 22:28:39;;;;;;;14.70;7.60;;;;;;;6.25;100.00;94520.88;10529122;28;20086;-76
2021/01/22 22:33:39;;;;;;;17.50;8.10;;;;;;;6.20;100.00;94517.34;10529360;28;20544;-76
2021/01/22 22:38:40;;;;;;;16.88;8.70;;;;;;;6.14;100.00;94519.16;10529287;28;20486;-76
2021/01/22 22:43:42;;;;;;;12.65;7.20;;;;;;;6.02;100.00;94527.28;10529335;28;20131;-78
2021/01/22 22:48:42;;;;;;;16.85;7.75;;;;;;;5.89;100.00;94515.09;10511564;28;20090;-77
2021/01/22 22:53:42;;;;;;;16.30;7.78;;;;;;;5.96;100.00;94513.03;10530109;28;20051;-75